Time;durP1;ratioP1;P1;durP2;ratioP2;P2;SDS_P1;SDS_P2;PMS_P1;PMS_P2;Temp;Humidity;BMP_temperature;BMP_pressure;BME280_temperature;BME280_humidity;BME280_pressure;Samples;Min_cycle;Max_cycle;Signal;HPM_P1;HPM_P2
2021/12/25 00:01:23;;;;;;;7.60;5.77;;;;;;;;;;5095987;28;20411;-70
2021/12/25 00:03:51;;;;;;;8.13;4.90;;;;;;;;;;5094690;28;20477;-70
2021/12/25 00:06:17;;;;;;;7.10;5.10;;;;;;;;;;5095820;28;20492;-72
2021/12/25 00:08:43;;;;;;;7.40;5.40;;;;;;;;;;5095554;28;20498;-71
2021/12/25 00:11:11;;;;;;;7.47;5.43;;;;;;;;;;5095762;28;20461;-69
2021/12/25 00:13:39;;;;;;;10.23;5.50;;;;;;;;;;5095789;28;20407;-69
2021/12/25 00:16:05;;;;;;;7.93;5.93;;;;;;;;;;5094436;28;20954;-71
2021/12/25 00:18:31;;;;;;;8.23;5.60;;;;;;;;;;5095619;28;20418;-70
2021/12/25 00:20:57;;;;;;;6.40;5.40;;;;;;;;;;5095557;28;20487;-71
2021/12/25 00:23:23;;;;;;;8.50;5.53;;;;;;;;;;5095547;28;20447;-71
2021/12/25 00:26:08;;;;;;;9.00;6.20;;;;;;;;;;5095510;28;20396;-71
2021/12/25 00:36:09;;;;;;;6.77;5.17;;;;;;;;;;5095266;28;20495;-71
2021/12/25 00:38:37;;;;;;;7.10;5.50;;;;;;;;;;5095131;28;20511;-71
2021/12/25 00:41:05;;;;;;;7.73;5.60;;;;;;;;;;5095147;28;20404;-71
2021/12/25 00:43:31;;;;;;;8.00;5.60;;;;;;;;;;5095029;28;20476;-70
2021/12/25 00:45:57;;;;;;;8.37;5.43;;;;;;;;;;5095057;28;20402;-71
2021/12/25 00:48:23;;;;;;;8.43;5.47;;;;;;;;;;5094847;28;20483;-71
2021/12/25 00:50:49;;;;;;;8.97;5.50;;;;;;;;;;5095093;28;20415;-71
2021/12/25 00:53:16;;;;;;;8.73;6.40;;;;;;;;;;5093677;28;20891;-71
2021/12/25 00:55:42;;;;;;;6.53;5.10;;;;;;;;;;5094866;28;21025;-71
2021/12/25 00:58:08;;;;;;;7.87;6.17;;;;;;;;;;5094726;28;20448;-72
2021/12/25 01:00:34;;;;;;;6.13;5.40;;;;;;;;;;5094759;28;20744;-71
2021/12/25 01:03:00;;;;;;;7.80;5.60;;;;;;;;;;5093393;28;20416;-72
2021/12/25 01:05:26;;;;;;;7.50;5.83;;;;;;;;;;5094345;28;20411;-71
2021/12/25 01:07:52;;;;;;;8.60;5.83;;;;;;;;;;5094570;28;20466;-70
2021/12/25 01:10:20;;;;;;;6.33;5.03;;;;;;;;;;5094448;28;20524;-72
2021/12/25 01:15:15;;;;;;;6.20;5.60;;;;;;;;;;5094480;28;20408;-71
2021/12/25 01:26:12;;;;;;;7.30;5.17;;;;;;;;;;5094339;28;20399;-72
2021/12/25 01:29:42;;;;;;;7.07;5.20;;;;;;;;;;5094226;28;20478;-71
2021/12/25 01:36:59;;;;;;;5.67;5.17;;;;;;;;;;5094137;28;20533;-71
2021/12/25 01:50:06;;;;;;;4.83;4.40;;;;;;;;;;5094017;28;20551;-71
2021/12/25 01:52:33;;;;;;;5.30;4.43;;;;;;;;;;5093802;28;20412;-70
2021/12/25 01:55:00;;;;;;;5.23;4.70;;;;;;;;;;5092523;28;20426;-71
2021/12/25 01:57:27;;;;;;;7.67;4.93;;;;;;;;;;5093623;28;20926;-71
2021/12/25 01:59:53;;;;;;;8.90;6.40;;;;;;;;;;5093802;28;20890;-71
2021/12/25 02:02:19;;;;;;;7.03;6.10;;;;;;;;;;5093665;28;20445;-71
2021/12/25 02:04:46;;;;;;;9.73;5.63;;;;;;;;;;5093654;28;20495;-72
2021/12/25 02:07:12;;;;;;;10.30;6.40;;;;;;;;;;5092391;28;20412;-71
2021/12/25 02:09:39;;;;;;;7.60;6.03;;;;;;;;;;5093413;28;20463;-71
2021/12/25 02:12:05;;;;;;;5.60;4.90;;;;;;;;;;5093561;28;20406;-71
2021/12/25 02:14:32;;;;;;;5.97;5.00;;;;;;;;;;5093391;28;20482;-70
2021/12/25 02:17:14;;;;;;;5.40;4.90;;;;;;;;;;5091354;28;20418;-71
2021/12/25 02:19:50;;;;;;;6.87;5.27;;;;;;;;;;5093510;28;20414;-71
2021/12/25 02:22:18;;;;;;;5.23;4.73;;;;;;;;;;5093521;28;20384;-70
2021/12/25 02:24:45;;;;;;;6.37;4.97;;;;;;;;;;5093444;28;20407;-72
2021/12/25 02:27:11;;;;;;;5.60;4.87;;;;;;;;;;5093438;28;20404;-71
2021/12/25 02:29:37;;;;;;;5.10;4.60;;;;;;;;;;5093220;28;20463;-71
2021/12/25 02:32:04;;;;;;;7.40;5.07;;;;;;;;;;5093254;28;20461;-70
2021/12/25 02:34:30;;;;;;;10.10;5.57;;;;;;;;;;5093232;28;20418;-70
2021/12/25 02:36:56;;;;;;;7.27;5.30;;;;;;;;;;5093321;28;20797;-71
2021/12/25 02:39:22;;;;;;;8.23;5.30;;;;;;;;;;5093236;28;20458;-71
2021/12/25 02:41:48;;;;;;;11.80;5.10;;;;;;;;;;5093241;28;20892;-71
2021/12/25 02:44:14;;;;;;;6.43;4.80;;;;;;;;;;5093080;28;20767;-70
2021/12/25 02:46:40;;;;;;;6.63;4.53;;;;;;;;;;5093244;28;20430;-70
2021/12/25 02:49:13;;;;;;;7.00;4.93;;;;;;;;;;5093036;28;20529;-70
2021/12/25 02:51:39;;;;;;;7.30;5.57;;;;;;;;;;5091861;28;20751;-71
2021/12/25 02:54:05;;;;;;;5.80;4.57;;;;;;;;;;5093214;28;20415;-72
2021/12/25 02:56:31;;;;;;;5.30;4.63;;;;;;;;;;5092945;28;20462;-71
2021/12/25 02:58:57;;;;;;;6.27;5.00;;;;;;;;;;5092875;28;20466;-71
2021/12/25 03:01:24;;;;;;;5.13;4.60;;;;;;;;;;5092996;28;20435;-70
2021/12/25 03:03:50;;;;;;;8.30;5.47;;;;;;;;;;5093026;28;20458;-72
2021/12/25 03:06:16;;;;;;;6.17;4.67;;;;;;;;;;5092943;28;20400;-71
2021/12/25 03:08:43;;;;;;;5.30;4.70;;;;;;;;;;5092756;28;20459;-70
2021/12/25 03:11:10;;;;;;;6.30;5.30;;;;;;;;;;5091788;28;20931;-68
2021/12/25 03:13:44;;;;;;;6.03;4.73;;;;;;;;;;5093044;28;20427;-71
2021/12/25 03:16:10;;;;;;;7.50;5.00;;;;;;;;;;5092949;28;20399;-69
2021/12/25 03:18:47;;;;;;;4.53;4.03;;;;;;;;;;5092948;28;20487;-69
2021/12/25 03:21:13;;;;;;;9.23;5.13;;;;;;;;;;5091694;28;20408;-69
2021/12/25 03:23:41;;;;;;;5.43;4.00;;;;;;;;;;5091625;28;20399;-69
2021/12/25 03:26:07;;;;;;;5.97;4.40;;;;;;;;;;5092750;28;20410;-70
2021/12/25 03:28:38;;;;;;;4.40;4.00;;;;;;;;;;5094784;28;20434;-69
2021/12/25 03:31:07;;;;;;;4.70;4.27;;;;;;;;;;5096632;28;20862;-69
2021/12/25 03:33:33;;;;;;;4.00;3.50;;;;;;;;;;5096487;28;20407;-69
2021/12/25 03:36:01;;;;;;;3.80;3.30;;;;;;;;;;5096500;28;20422;-69
2021/12/25 03:38:28;;;;;;;3.57;3.20;;;;;;;;;;5096441;28;20421;-70
2021/12/25 03:40:55;;;;;;;3.90;2.97;;;;;;;;;;5095074;28;20458;-68
2021/12/25 03:43:22;;;;;;;3.73;3.40;;;;;;;;;;5096346;28;21550;-69
2021/12/25 03:45:48;;;;;;;4.40;3.27;;;;;;;;;;5096022;28;20431;-69
2021/12/25 03:48:30;;;;;;;3.77;2.97;;;;;;;;;;5096430;28;20411;-73
2021/12/25 03:59:03;;;;;;;6.53;3.10;;;;;;;;;;5095933;28;20512;-72
2021/12/25 04:04:19;;;;;;;3.23;2.93;;;;;;;;;;5095955;28;20415;-72
2021/12/25 04:06:48;;;;;;;3.20;2.50;;;;;;;;;;5094569;28;20423;-73
2021/12/25 04:09:23;;;;;;;3.00;2.27;;;;;;;;;;5095796;28;20467;-69
2021/12/25 04:11:49;;;;;;;2.43;2.27;;;;;;;;;;5095785;28;20399;-68
2021/12/25 04:14:16;;;;;;;2.90;2.13;;;;;;;;;;5095802;28;20416;-68
2021/12/25 04:16:42;;;;;;;3.10;1.93;;;;;;;;;;5095683;28;20454;-72
2021/12/25 04:19:08;;;;;;;2.60;2.17;;;;;;;;;;5095712;28;20830;-72
2021/12/25 04:21:36;;;;;;;2.53;2.33;;;;;;;;;;5094359;28;20514;-68
2021/12/25 04:24:02;;;;;;;2.30;2.10;;;;;;;;;;5095609;28;20415;-69
2021/12/25 04:26:36;;;;;;;3.33;3.03;;;;;;;;;;5095534;28;20454;-69
2021/12/25 04:29:17;;;;;;;3.23;2.40;;;;;;;;;;5095489;28;20505;-68
2021/12/25 04:47:53;;;;;;;2.27;2.07;;;;;;;;;;5095247;28;20446;-68
2021/12/25 05:02:11;;;;;;;2.20;2.00;;;;;;;;;;5094923;28;20982;-68
2021/12/25 05:04:49;;;;;;;2.93;2.10;;;;;;;;;;5094619;28;20416;-71
2021/12/25 05:07:16;;;;;;;1.77;1.67;;;;;;;;;;5094897;28;20396;-68
2021/12/25 05:09:42;;;;;;;2.10;1.90;;;;;;;;;;5094411;28;20475;-67
2021/12/25 05:12:08;;;;;;;2.40;2.20;;;;;;;;;;5094624;28;20400;-67
2021/12/25 05:14:34;;;;;;;3.03;2.13;;;;;;;;;;5094691;28;20865;-68
2021/12/25 05:17:00;;;;;;;2.00;1.83;;;;;;;;;;5094483;28;20400;-70
2021/12/25 05:19:26;;;;;;;2.50;2.03;;;;;;;;;;5094574;28;20412;-71
2021/12/25 05:21:52;;;;;;;2.17;1.97;;;;;;;;;;5094420;28;20388;-71
2021/12/25 05:24:18;;;;;;;2.73;2.40;;;;;;;;;;5094346;28;20920;-71
2021/12/25 05:26:44;;;;;;;2.60;2.40;;;;;;;;;;5094250;28;20403;-70
2021/12/25 05:29:11;;;;;;;2.70;2.50;;;;;;;;;;5094223;28;20470;-71
2021/12/25 05:31:37;;;;;;;3.13;2.30;;;;;;;;;;5094282;28;20957;-71
2021/12/25 05:34:03;;;;;;;2.40;2.10;;;;;;;;;;5094243;28;20774;-71
2021/12/25 05:36:30;;;;;;;2.60;2.40;;;;;;;;;;5094186;28;20415;-71
2021/12/25 05:38:58;;;;;;;4.57;3.07;;;;;;;;;;5094074;28;20440;-70
2021/12/25 05:41:29;;;;;;;2.50;2.30;;;;;;;;;;5094061;28;20640;-70
2021/12/25 05:43:55;;;;;;;4.07;3.60;;;;;;;;;;5094034;28;20826;-71
2021/12/25 05:46:22;;;;;;;5.10;3.57;;;;;;;;;;5092669;28;20424;-71
2021/12/25 05:48:50;;;;;;;3.97;3.10;;;;;;;;;;5093952;28;20455;-70
2021/12/25 05:51:16;;;;;;;3.73;3.40;;;;;;;;;;5093787;28;20423;-72
2021/12/25 05:53:42;;;;;;;4.03;3.60;;;;;;;;;;5093786;28;20929;-71
2021/12/25 05:56:08;;;;;;;3.60;3.27;;;;;;;;;;5093818;28;20524;-71
2021/12/25 05:58:34;;;;;;;5.00;3.87;;;;;;;;;;5093536;28;20457;-71
2021/12/25 06:01:00;;;;;;;3.80;3.40;;;;;;;;;;5093770;28;20465;-71
2021/12/25 06:03:26;;;;;;;5.40;4.17;;;;;;;;;;5092302;28;20477;-71
2021/12/25 06:05:52;;;;;;;7.40;4.07;;;;;;;;;;5093515;28;20411;-70
2021/12/25 06:08:18;;;;;;;4.20;3.47;;;;;;;;;;5093657;28;20404;-70
2021/12/25 06:10:44;;;;;;;5.20;3.80;;;;;;;;;;5093454;28;20824;-71
2021/12/25 06:13:16;;;;;;;5.43;4.50;;;;;;;;;;5093539;28;20403;-71
2021/12/25 06:15:42;;;;;;;6.50;4.10;;;;;;;;;;5093400;28;20426;-71
2021/12/25 06:18:12;;;;;;;5.70;4.50;;;;;;;;;;5093577;28;20419;-68
2021/12/25 06:20:38;;;;;;;12.30;4.60;;;;;;;;;;5093554;28;20448;-71
2021/12/25 06:23:04;;;;;;;5.80;4.00;;;;;;;;;;5093452;28;20404;-69
2021/12/25 06:25:30;;;;;;;4.47;3.60;;;;;;;;;;5093190;28;20400;-70
2021/12/25 06:27:57;;;;;;;4.47;4.03;;;;;;;;;;5093320;28;20875;-70
2021/12/25 06:30:23;;;;;;;4.40;4.00;;;;;;;;;;5093349;28;20475;-69
2021/12/25 06:32:49;;;;;;;5.07;3.83;;;;;;;;;;5093356;28;20477;-69
2021/12/25 06:35:15;;;;;;;3.80;3.37;;;;;;;;;;5093182;28;20837;-68
2021/12/25 06:37:44;;;;;;;7.33;4.13;;;;;;;;;;5093175;28;20442;-70
2021/12/25 06:40:11;;;;;;;5.60;3.87;;;;;;;;;;5093160;28;20432;-68
2021/12/25 06:42:37;;;;;;;3.70;3.30;;;;;;;;;;5093229;28;20408;-69
2021/12/25 06:45:04;;;;;;;4.47;3.73;;;;;;;;;;5093059;28;20412;-68
2021/12/25 06:47:30;;;;;;;5.87;4.10;;;;;;;;;;5091891;28;20412;-68
2021/12/25 06:49:56;;;;;;;6.47;4.80;;;;;;;;;;5091890;28;20471;-68
2021/12/25 06:52:22;;;;;;;5.33;3.97;;;;;;;;;;5093084;28;20734;-68
2021/12/25 06:54:48;;;;;;;4.50;3.67;;;;;;;;;;5092994;28;20408;-70
2021/12/25 06:57:14;;;;;;;4.57;3.70;;;;;;;;;;5092794;28;20407;-70
2021/12/25 06:59:40;;;;;;;6.90;4.07;;;;;;;;;;5092957;28;20424;-70
2021/12/25 07:02:06;;;;;;;4.13;3.73;;;;;;;;;;5094338;28;20743;-68
2021/12/25 07:04:32;;;;;;;4.23;3.80;;;;;;;;;;5096797;28;20890;-69
2021/12/25 07:06:58;;;;;;;6.40;3.40;;;;;;;;;;5096958;28;20507;-70
2021/12/25 07:09:24;;;;;;;6.00;4.00;;;;;;;;;;5096813;28;20475;-68
2021/12/25 07:11:50;;;;;;;3.90;3.50;;;;;;;;;;5096966;28;20409;-70
2021/12/25 07:14:17;;;;;;;4.43;3.53;;;;;;;;;;5095588;28;21031;-69
2021/12/25 07:16:43;;;;;;;4.60;3.67;;;;;;;;;;5095477;28;20403;-70
2021/12/25 07:19:12;;;;;;;5.30;4.10;;;;;;;;;;5096790;28;20439;-70
2021/12/25 07:21:38;;;;;;;3.30;2.77;;;;;;;;;;5096796;28;20400;-70
2021/12/25 07:24:04;;;;;;;4.20;3.13;;;;;;;;;;5096685;28;20407;-70
2021/12/25 07:26:30;;;;;;;3.77;3.40;;;;;;;;;;5095308;28;20407;-70
2021/12/25 07:28:57;;;;;;;3.20;2.90;;;;;;;;;;5096535;28;20592;-69
2021/12/25 07:31:23;;;;;;;3.40;2.90;;;;;;;;;;5096659;28;20424;-69
2021/12/25 07:33:49;;;;;;;5.67;3.63;;;;;;;;;;5095142;28;20815;-70
2021/12/25 07:36:15;;;;;;;4.80;3.20;;;;;;;;;;5095240;28;20446;-71
2021/12/25 07:38:42;;;;;;;5.07;3.57;;;;;;;;;;5095155;28;20557;-69
2021/12/25 07:41:08;;;;;;;4.90;3.37;;;;;;;;;;5096398;28;20464;-70
2021/12/25 07:43:34;;;;;;;5.27;3.63;;;;;;;;;;5096272;28;20419;-71
2021/12/25 07:46:00;;;;;;;6.90;3.73;;;;;;;;;;5096202;28;20420;-70
2021/12/25 07:48:27;;;;;;;5.40;3.40;;;;;;;;;;5096152;28;20423;-71
2021/12/25 07:50:53;;;;;;;6.67;3.90;;;;;;;;;;5096270;28;20411;-70
2021/12/25 07:53:19;;;;;;;5.77;4.00;;;;;;;;;;5094929;28;20423;-71
2021/12/25 07:55:50;;;;;;;6.10;4.07;;;;;;;;;;5096094;28;20449;-72
2021/12/25 07:58:16;;;;;;;4.63;3.50;;;;;;;;;;5095948;28;20512;-69
2021/12/25 08:00:43;;;;;;;4.80;3.47;;;;;;;;;;5096075;28;20462;-69
2021/12/25 08:03:08;;;;;;;3.43;3.00;;;;;;;;;;5096162;28;20506;-70
2021/12/25 08:05:37;;;;;;;4.80;3.20;;;;;;;;;;5094387;28;20507;-72
2021/12/25 08:08:04;;;;;;;3.63;2.90;;;;;;;;;;5095747;28;20412;-72
2021/12/25 08:10:31;;;;;;;5.93;3.90;;;;;;;;;;5095773;28;20473;-72
2021/12/25 08:12:58;;;;;;;4.00;3.30;;;;;;;;;;5095034;28;20412;-72
2021/12/25 08:15:25;;;;;;;3.93;3.47;;;;;;;;;;5095145;28;20404;-72
2021/12/25 08:17:51;;;;;;;4.83;3.97;;;;;;;;;;5094434;28;20412;-72
2021/12/25 08:20:18;;;;;;;4.40;3.47;;;;;;;;;;5095697;28;20508;-72
2021/12/25 08:22:44;;;;;;;3.53;2.90;;;;;;;;;;5095658;28;20913;-71
2021/12/25 08:25:12;;;;;;;5.50;3.33;;;;;;;;;;5095444;28;20438;-72
2021/12/25 08:27:38;;;;;;;3.93;3.53;;;;;;;;;;5095447;28;20414;-72
2021/12/25 08:30:06;;;;;;;4.30;3.70;;;;;;;;;;5095389;28;21186;-72
2021/12/25 08:32:32;;;;;;;4.47;3.60;;;;;;;;;;5094156;28;20410;-72
2021/12/25 08:34:58;;;;;;;4.87;3.10;;;;;;;;;;5095406;28;20503;-72
2021/12/25 08:37:26;;;;;;;5.47;4.10;;;;;;;;;;5094110;28;20482;-71
2021/12/25 08:39:53;;;;;;;5.23;3.80;;;;;;;;;;5095196;28;20442;-71
2021/12/25 08:42:19;;;;;;;5.73;4.57;;;;;;;;;;5095208;28;20404;-72
2021/12/25 08:47:32;;;;;;;4.63;3.70;;;;;;;;;;5095138;28;20467;-72
2021/12/25 08:49:58;;;;;;;4.80;3.40;;;;;;;;;;5094939;28;20966;-71
2021/12/25 08:52:25;;;;;;;3.87;3.47;;;;;;;;;;5093808;28;20483;-72
2021/12/25 08:54:52;;;;;;;5.10;3.90;;;;;;;;;;5094816;28;20412;-71
2021/12/25 08:57:19;;;;;;;3.70;3.40;;;;;;;;;;5093380;28;20411;-72
2021/12/25 08:59:45;;;;;;;3.97;3.57;;;;;;;;;;5094966;28;20404;-72
2021/12/25 09:02:14;;;;;;;5.73;4.20;;;;;;;;;;5094920;28;20400;-71
2021/12/25 09:04:41;;;;;;;5.10;4.27;;;;;;;;;;5094668;28;20767;-71
2021/12/25 09:07:07;;;;;;;4.70;3.60;;;;;;;;;;5094749;28;20400;-72
2021/12/25 09:09:34;;;;;;;6.43;4.50;;;;;;;;;;5094578;28;21025;-71
2021/12/25 09:12:00;;;;;;;5.77;4.33;;;;;;;;;;5094725;28;20485;-70
2021/12/25 09:14:26;;;;;;;5.27;4.10;;;;;;;;;;5093310;28;20561;-70
2021/12/25 09:16:53;;;;;;;6.00;4.57;;;;;;;;;;5093273;28;20457;-72
2021/12/25 09:19:19;;;;;;;6.70;4.13;;;;;;;;;;5094558;28;20415;-70
2021/12/25 09:21:45;;;;;;;8.00;4.73;;;;;;;;;;5094458;28;20392;-72
2021/12/25 09:24:11;;;;;;;6.47;4.70;;;;;;;;;;5092928;28;20981;-72
2021/12/25 09:26:37;;;;;;;6.23;5.17;;;;;;;;;;5092821;28;20488;-72
2021/12/25 09:29:04;;;;;;;3.67;3.37;;;;;;;;;;5094150;28;20950;-71
2021/12/25 09:31:30;;;;;;;4.20;3.80;;;;;;;;;;5094329;28;20411;-72
2021/12/25 09:33:56;;;;;;;4.53;3.73;;;;;;;;;;5094198;28;20475;-72
2021/12/25 09:36:22;;;;;;;3.87;3.50;;;;;;;;;;5094298;28;20439;-72
2021/12/25 09:38:49;;;;;;;4.03;2.90;;;;;;;;;;5093941;28;20424;-71
2021/12/25 09:41:16;;;;;;;3.20;2.90;;;;;;;;;;5094048;28;20400;-71
2021/12/25 09:43:44;;;;;;;3.87;3.50;;;;;;;;;;5092689;28;20415;-72
2021/12/25 09:46:10;;;;;;;4.47;3.80;;;;;;;;;;5093867;28;20879;-71
2021/12/25 09:48:37;;;;;;;5.50;4.07;;;;;;;;;;5093864;28;20419;-71
2021/12/25 09:51:03;;;;;;;5.13;4.50;;;;;;;;;;5092613;28;20419;-71
2021/12/25 09:53:31;;;;;;;4.53;3.90;;;;;;;;;;5093797;28;20440;-71
2021/12/25 09:55:57;;;;;;;4.67;3.00;;;;;;;;;;5092557;28;20403;-71
2021/12/25 09:58:24;;;;;;;3.20;2.90;;;;;;;;;;5093575;28;20471;-71
2021/12/25 10:00:53;;;;;;;3.50;3.10;;;;;;;;;;5093693;28;20432;-70
2021/12/25 10:03:19;;;;;;;3.77;3.00;;;;;;;;;;5093629;28;20404;-71
2021/12/25 10:05:47;;;;;;;3.23;2.63;;;;;;;;;;5093603;28;20899;-71
2021/12/25 10:08:14;;;;;;;2.77;2.57;;;;;;;;;;5093573;28;20415;-70
2021/12/25 10:10:46;;;;;;;2.03;1.70;;;;;;;;;;5093462;28;20984;-71
2021/12/25 10:13:30;;;;;;;2.10;1.90;;;;;;;;;;5093465;28;20427;-71
2021/12/25 10:16:16;;;;;;;2.10;1.90;;;;;;;;;;5092272;28;20408;-72
2021/12/25 10:18:42;;;;;;;3.10;2.00;;;;;;;;;;5091954;28;20412;-70
2021/12/25 10:21:17;;;;;;;1.50;1.40;;;;;;;;;;5093315;28;20415;-72
2021/12/25 10:23:44;;;;;;;1.50;1.40;;;;;;;;;;5093291;28;20431;-71
2021/12/25 10:26:10;;;;;;;7.47;1.37;;;;;;;;;;5093314;28;20497;-71
2021/12/25 10:28:37;;;;;;;1.60;1.30;;;;;;;;;;5093247;28;20427;-72
2021/12/25 10:31:13;;;;;;;3.43;1.20;;;;;;;;;;5093254;28;20494;-71
2021/12/25 10:33:44;;;;;;;1.63;1.50;;;;;;;;;;5092008;28;20415;-72
2021/12/25 10:36:30;;;;;;;1.43;1.33;;;;;;;;;;5092676;28;20416;-71
2021/12/25 10:39:05;;;;;;;1.90;1.80;;;;;;;;;;5092841;28;20438;-72
2021/12/25 10:41:34;;;;;;;1.23;1.13;;;;;;;;;;5093280;28;20967;-71
2021/12/25 10:44:30;;;;;;;2.03;1.80;;;;;;;;;;5093224;28;20426;-72
2021/12/25 10:46:58;;;;;;;1.40;1.30;;;;;;;;;;5075875;28;20420;-72
2021/12/25 10:49:26;;;;;;;2.30;1.73;;;;;;;;;;5093079;28;20451;-70
2021/12/25 10:51:52;;;;;;;1.87;1.03;;;;;;;;;;5092997;28;20469;-73
2021/12/25 10:54:19;;;;;;;1.40;1.23;;;;;;;;;;5093008;28;20460;-71
2021/12/25 10:56:46;;;;;;;1.50;1.40;;;;;;;;;;5093023;28;20422;-71
2021/12/25 10:59:14;;;;;;;1.20;1.10;;;;;;;;;;5092850;28;20546;-70
2021/12/25 11:01:46;;;;;;;1.00;0.90;;;;;;;;;;5092898;28;20996;-71
2021/12/25 11:04:32;;;;;;;2.70;1.57;;;;;;;;;;5092831;28;20741;-71
2021/12/25 11:06:59;;;;;;;1.30;1.20;;;;;;;;;;5092907;28;20809;-72
2021/12/25 11:09:26;;;;;;;3.23;1.50;;;;;;;;;;5092896;28;20451;-71
2021/12/25 11:12:10;;;;;;;1.10;1.00;;;;;;;;;;5093001;28;20392;-69
2021/12/25 11:14:36;;;;;;;1.40;1.20;;;;;;;;;;5092879;28;20415;-71
2021/12/25 11:17:21;;;;;;;1.70;1.60;;;;;;;;;;5092956;28;20388;-71
2021/12/25 11:19:57;;;;;;;1.23;1.13;;;;;;;;;;5092960;28;20897;-71
2021/12/25 11:22:25;;;;;;;2.03;1.73;;;;;;;;;;5092931;28;20913;-71
2021/12/25 11:24:51;;;;;;;1.40;1.30;;;;;;;;;;5092709;28;20408;-71
2021/12/25 11:27:17;;;;;;;1.90;1.57;;;;;;;;;;5092792;28;20407;-71
2021/12/25 11:29:43;;;;;;;1.40;1.30;;;;;;;;;;5092789;28;20467;-71
2021/12/25 11:32:11;;;;;;;1.20;1.10;;;;;;;;;;5092631;28;20490;-70
2021/12/25 11:34:37;;;;;;;1.40;1.30;;;;;;;;;;5091399;28;20776;-72
2021/12/25 11:37:04;;;;;;;1.33;1.20;;;;;;;;;;5092643;28;20456;-71
2021/12/25 11:39:31;;;;;;;1.37;1.27;;;;;;;;;;5092523;28;20516;-72
2021/12/25 11:42:02;;;;;;;1.40;1.00;;;;;;;;;;5091371;28;20451;-71
2021/12/25 11:44:30;;;;;;;1.80;1.70;;;;;;;;;;5092665;28;20408;-71
2021/12/25 11:46:56;;;;;;;1.83;1.63;;;;;;;;;;5092593;28;20437;-69
2021/12/25 11:49:22;;;;;;;1.10;1.10;;;;;;;;;;5094174;28;20481;-72
2021/12/25 11:51:50;;;;;;;1.63;1.23;;;;;;;;;;5096220;28;20962;-71
2021/12/25 11:54:53;;;;;;;1.47;1.37;;;;;;;;;;5096079;28;20502;-71
2021/12/25 11:59:44;;;;;;;1.10;1.00;;;;;;;;;;5096084;28;20423;-71
2021/12/25 12:02:11;;;;;;;1.10;1.00;;;;;;;;;;5096053;28;20427;-70
2021/12/25 12:04:37;;;;;;;1.77;1.40;;;;;;;;;;5094478;28;20408;-71
2021/12/25 12:07:13;;;;;;;1.47;1.37;;;;;;;;;;5095887;28;20802;-72
2021/12/25 12:09:45;;;;;;;2.13;1.27;;;;;;;;;;5095689;28;20975;-71
2021/12/25 12:12:22;;;;;;;1.77;1.60;;;;;;;;;;5095827;28;20434;-71
2021/12/25 12:15:06;;;;;;;1.30;1.20;;;;;;;;;;5094525;28;20909;-71
2021/12/25 12:17:33;;;;;;;1.57;1.37;;;;;;;;;;5094397;28;20809;-71
2021/12/25 12:20:03;;;;;;;1.20;1.10;;;;;;;;;;5095796;28;20918;-72
2021/12/25 12:22:47;;;;;;;1.50;1.40;;;;;;;;;;5094384;28;20477;-71
2021/12/25 12:25:24;;;;;;;1.10;1.10;;;;;;;;;;5095505;28;20928;-71
2021/12/25 12:27:50;;;;;;;1.17;1.10;;;;;;;;;;5094263;28;20410;-71
2021/12/25 12:30:31;;;;;;;1.27;1.17;;;;;;;;;;5095331;28;20558;-71
2021/12/25 12:32:58;;;;;;;0.93;0.93;;;;;;;;;;5094108;28;20396;-71
2021/12/25 12:35:37;;;;;;;1.53;1.40;;;;;;;;;;5095315;28;20411;-71
2021/12/25 12:38:22;;;;;;;1.50;1.40;;;;;;;;;;5095095;28;20457;-72
2021/12/25 12:41:08;;;;;;;1.53;1.43;;;;;;;;;;5095243;28;20398;-71
2021/12/25 12:43:50;;;;;;;1.10;1.00;;;;;;;;;;5095126;28;20449;-71
2021/12/25 12:46:16;;;;;;;1.23;1.13;;;;;;;;;;5093792;28;20427;-71
2021/12/25 12:49:01;;;;;;;1.40;1.30;;;;;;;;;;5095104;28;20486;-72
2021/12/25 12:51:27;;;;;;;1.40;1.30;;;;;;;;;;5093746;28;20933;-71
2021/12/25 12:53:53;;;;;;;2.00;1.20;;;;;;;;;;5094988;28;20490;-71
2021/12/25 12:56:21;;;;;;;1.33;1.23;;;;;;;;;;5094769;28;20411;-72
2021/12/25 12:58:55;;;;;;;1.63;1.37;;;;;;;;;;5094655;28;20463;-71
2021/12/25 13:01:21;;;;;;;1.33;1.20;;;;;;;;;;5094315;28;20412;-71
2021/12/25 13:03:47;;;;;;;1.77;1.10;;;;;;;;;;5094637;28;20400;-71
2021/12/25 13:06:15;;;;;;;1.20;1.10;;;;;;;;;;5094741;28;20412;-72
2021/12/25 13:08:43;;;;;;;1.67;1.53;;;;;;;;;;5094542;28;20431;-71
2021/12/25 13:11:18;;;;;;;1.23;1.13;;;;;;;;;;5094751;28;20903;-72
2021/12/25 13:13:53;;;;;;;3.17;1.40;;;;;;;;;;5094663;28;20399;-71
2021/12/25 13:16:22;;;;;;;1.70;1.60;;;;;;;;;;5094666;28;20414;-71
2021/12/25 13:18:51;;;;;;;1.80;1.70;;;;;;;;;;5094417;28;20890;-71
2021/12/25 13:21:22;;;;;;;1.80;1.50;;;;;;;;;;5094676;28;20403;-71
2021/12/25 13:23:52;;;;;;;2.17;1.80;;;;;;;;;;5094355;28;20400;-71
2021/12/25 13:26:50;;;;;;;2.00;1.87;;;;;;;;;;5094387;28;20431;-71
2021/12/25 13:29:21;;;;;;;1.73;1.63;;;;;;;;;;5078451;28;20479;-70
2021/12/25 13:31:49;;;;;;;2.77;2.07;;;;;;;;;;5094213;28;20764;-69
2021/12/25 13:34:23;;;;;;;2.00;1.80;;;;;;;;;;5092891;28;20412;-69
2021/12/25 13:36:50;;;;;;;2.50;2.10;;;;;;;;;;5094240;28;20408;-71
2021/12/25 13:39:23;;;;;;;2.90;2.60;;;;;;;;;;5094082;28;20904;-70
2021/12/25 13:41:52;;;;;;;2.57;2.23;;;;;;;;;;5092886;28;20419;-70
2021/12/25 13:44:18;;;;;;;2.63;2.43;;;;;;;;;;5092658;28;20816;-70
2021/12/25 13:46:53;;;;;;;2.57;2.37;;;;;;;;;;5093969;28;20414;-70
2021/12/25 13:49:40;;;;;;;2.80;2.50;;;;;;;;;;5092656;28;20461;-70
2021/12/25 13:52:20;;;;;;;1.80;1.70;;;;;;;;;;5093956;28;20473;-69
2021/12/25 13:55:07;;;;;;;2.60;2.40;;;;;;;;;;5093841;28;20411;-70
2021/12/25 13:57:34;;;;;;;2.30;2.10;;;;;;;;;;5079655;28;20549;-69
2021/12/25 14:00:03;;;;;;;3.03;2.80;;;;;;;;;;5093846;28;20414;-69
2021/12/25 14:02:29;;;;;;;5.67;3.20;;;;;;;;;;5093637;28;20874;-69
2021/12/25 14:04:56;;;;;;;3.67;2.50;;;;;;;;;;5092373;28;20438;-69
2021/12/25 14:07:24;;;;;;;5.07;2.73;;;;;;;;;;5093695;28;20387;-69
2021/12/25 14:09:53;;;;;;;8.43;3.07;;;;;;;;;;5093526;28;20569;-69
2021/12/25 14:12:21;;;;;;;2.50;2.30;;;;;;;;;;5093469;28;20412;-69
2021/12/25 14:14:47;;;;;;;2.60;2.40;;;;;;;;;;5092148;28;20423;-69
2021/12/25 14:17:13;;;;;;;5.30;3.70;;;;;;;;;;5093579;28;20400;-69
2021/12/25 14:19:40;;;;;;;3.30;3.00;;;;;;;;;;5093489;28;20439;-70
2021/12/25 14:22:06;;;;;;;3.20;2.67;;;;;;;;;;5093411;28;20433;-70
2021/12/25 14:24:43;;;;;;;3.90;3.07;;;;;;;;;;5093244;28;20461;-69
2021/12/25 14:27:13;;;;;;;4.60;3.77;;;;;;;;;;5093408;28;20417;-69
2021/12/25 14:29:39;;;;;;;3.17;2.90;;;;;;;;;;5093416;28;20518;-69
2021/12/25 14:32:05;;;;;;;4.10;3.10;;;;;;;;;;5093287;28;20396;-69
2021/12/25 14:34:33;;;;;;;3.30;3.00;;;;;;;;;;5091981;28;20408;-69
2021/12/25 14:36:59;;;;;;;5.67;3.43;;;;;;;;;;5093174;28;20431;-71
2021/12/25 14:39:27;;;;;;;3.30;2.93;;;;;;;;;;5093218;28;20447;-73
2021/12/25 14:41:53;;;;;;;4.10;3.60;;;;;;;;;;5093344;28;20400;-70
2021/12/25 14:44:27;;;;;;;4.80;3.77;;;;;;;;;;5093128;28;20411;-69
2021/12/25 14:47:06;;;;;;;4.33;3.93;;;;;;;;;;5091760;28;20407;-69
2021/12/25 14:49:39;;;;;;;7.10;3.50;;;;;;;;;;5091865;28;20466;-69
2021/12/25 14:52:08;;;;;;;4.67;3.93;;;;;;;;;;5093171;28;20411;-69
2021/12/25 14:54:34;;;;;;;5.57;4.27;;;;;;;;;;5093045;28;20392;-69
2021/12/25 14:57:00;;;;;;;6.83;4.73;;;;;;;;;;5092990;28;20840;-71
2021/12/25 14:59:27;;;;;;;5.00;3.97;;;;;;;;;;5092954;28;20466;-69
2021/12/25 15:01:56;;;;;;;5.10;4.10;;;;;;;;;;5093012;28;20411;-69
2021/12/25 15:04:22;;;;;;;6.93;4.70;;;;;;;;;;5091699;28;20495;-71
2021/12/25 15:06:48;;;;;;;6.10;5.00;;;;;;;;;;5092915;28;20511;-70
2021/12/25 15:09:15;;;;;;;5.43;4.50;;;;;;;;;;5093001;28;20459;-70
2021/12/25 15:11:43;;;;;;;5.77;5.17;;;;;;;;;;5093051;28;20412;-70
2021/12/25 15:14:15;;;;;;;7.37;5.80;;;;;;;;;;5092853;28;20801;-69
2021/12/25 15:16:49;;;;;;;11.40;6.70;;;;;;;;;;5091277;28;20420;-70
2021/12/25 15:19:24;;;;;;;9.80;6.97;;;;;;;;;;5091750;28;20410;-69
2021/12/25 15:21:51;;;;;;;10.53;8.53;;;;;;;;;;5092740;28;20754;-69
2021/12/25 15:24:19;;;;;;;10.87;8.47;;;;;;;;;;5095788;28;20414;-68
2021/12/25 15:26:56;;;;;;;10.83;8.00;;;;;;;;;;5095340;28;20817;-69
2021/12/25 15:29:29;;;;;;;12.70;8.60;;;;;;;;;;5096667;28;20902;-68
2021/12/25 15:32:04;;;;;;;11.83;9.20;;;;;;;;;;5094736;28;20465;-68
2021/12/25 15:34:30;;;;;;;11.37;8.67;;;;;;;;;;5095268;28;20917;-68
2021/12/25 15:36:57;;;;;;;12.57;9.50;;;;;;;;;;5096445;28;20407;-68
2021/12/25 15:39:24;;;;;;;13.33;9.60;;;;;;;;;;5095138;28;20847;-69
2021/12/25 15:41:51;;;;;;;19.40;12.80;;;;;;;;;;5096401;28;20407;-68
2021/12/25 15:44:18;;;;;;;12.53;8.97;;;;;;;;;;5096347;28;20415;-68
2021/12/25 15:46:45;;;;;;;14.23;9.60;;;;;;;;;;5096324;28;20399;-67
2021/12/25 15:49:11;;;;;;;12.00;8.60;;;;;;;;;;5094931;28;20447;-70
2021/12/25 15:51:37;;;;;;;12.93;8.60;;;;;;;;;;5096376;28;20403;-70
2021/12/25 15:54:04;;;;;;;13.93;9.00;;;;;;;;;;5096232;28;20392;-70
2021/12/25 15:56:30;;;;;;;18.93;9.97;;;;;;;;;;5094853;28;20411;-71
2021/12/25 15:58:56;;;;;;;13.40;9.50;;;;;;;;;;5096032;28;20957;-71
2021/12/25 16:01:22;;;;;;;11.67;9.57;;;;;;;;;;5095985;28;20438;-70
2021/12/25 16:03:48;;;;;;;11.90;9.93;;;;;;;;;;5094733;28;20932;-71
2021/12/25 16:06:15;;;;;;;16.07;9.83;;;;;;;;;;5094933;28;20815;-71
2021/12/25 16:08:41;;;;;;;12.00;9.20;;;;;;;;;;5095841;28;20424;-73
2021/12/25 16:11:08;;;;;;;16.30;10.70;;;;;;;;;;5094070;28;20508;-71